createdAt,value
2022-12-18T00:01:28.636Z,101210.41
2022-12-18T00:03:56.681Z,101223.78
2022-12-18T00:06:25.351Z,101219.41
2022-12-18T00:08:52.709Z,101225.66
2022-12-18T00:11:21.609Z,101234.09
2022-12-18T00:13:49.011Z,101238.09
2022-12-18T00:16:19.480Z,101237.16
2022-12-18T00:18:47.494Z,101249.78
2022-12-18T00:21:14.860Z,101258.88
2022-12-18T00:23:43.424Z,101253.66
2022-12-18T00:26:16.189Z,101255.28
2022-12-18T00:28:44.121Z,101262.16
2022-12-18T00:31:16.049Z,101270.28
2022-12-18T00:33:43.474Z,101267.91
2022-12-18T00:36:12.631Z,101273.22
2022-12-18T00:38:40.477Z,101271.06
2022-12-18T00:41:10.140Z,101267.47
2022-12-18T00:43:38.385Z,101279.97
2022-12-18T00:46:06.434Z,101286.31
2022-12-18T00:48:33.912Z,101282.28
2022-12-18T00:51:01.246Z,101284.56
2022-12-18T00:53:28.908Z,101285.38
2022-12-18T00:55:56.599Z,101293.34
2022-12-18T00:58:23.935Z,101302.41
2022-12-18T01:00:51.764Z,101305.91
2022-12-18T01:03:19.199Z,101299.16
2022-12-18T01:05:46.864Z,101308.66
2022-12-18T01:08:14.572Z,101302.31
2022-12-18T01:10:44.030Z,101304.72
2022-12-18T01:13:11.386Z,101308.06
2022-12-18T01:15:39.069Z,101314.84
2022-12-18T01:18:06.830Z,101316.06
2022-12-18T01:20:34.151Z,101312.41
2022-12-18T01:23:01.747Z,101317.16
2022-12-18T01:25:29.153Z,101326.28
2022-12-18T01:27:56.523Z,101327.63
2022-12-18T01:30:26.381Z,101334.94
2022-12-18T01:32:53.969Z,101326.00
2022-12-18T01:35:21.310Z,101331.13
2022-12-18T01:37:49.053Z,101332.16
2022-12-18T01:40:16.507Z,101337.31
2022-12-18T01:42:43.839Z,101337.88
2022-12-18T01:45:12.258Z,101341.66
2022-12-18T01:48:02.682Z,101338.16
2022-12-18T01:50:36.191Z,101352.16
2022-12-18T01:53:23.704Z,101347.72
2022-12-18T01:55:53.071Z,101354.25
2022-12-18T01:58:23.187Z,101361.81
2022-12-18T02:00:50.898Z,101351.25
2022-12-18T02:03:20.694Z,101348.03
2022-12-18T02:06:22.049Z,101355.69
2022-12-18T02:09:14.993Z,101366.50
2022-12-18T02:12:14.793Z,101351.50
2022-12-18T02:14:44.910Z,101358.47
2022-12-18T02:17:14.179Z,101370.34
2022-12-18T02:20:06.357Z,101371.72
2022-12-18T02:23:00.399Z,101372.94
2022-12-18T02:25:46.597Z,101376.94
2022-12-18T02:28:16.349Z,101378.66
2022-12-18T02:30:44.148Z,101380.22
2022-12-18T02:33:11.681Z,101381.50
2022-12-18T02:35:39.357Z,101381.00
2022-12-18T02:38:06.784Z,101387.03
2022-12-18T02:40:34.879Z,101385.78
2022-12-18T02:43:10.558Z,101392.31
2022-12-18T02:45:47.343Z,101394.03
2022-12-18T02:48:15.763Z,101395.66
2022-12-18T02:50:47.083Z,101397.25
2022-12-18T02:53:37.340Z,101397.94
2022-12-18T02:56:16.644Z,101392.22
2022-12-18T02:59:01.455Z,101396.56
2022-12-18T03:01:34.118Z,101403.22
2022-12-18T03:04:10.703Z,101400.38
2022-12-18T03:06:42.639Z,101418.72
2022-12-18T03:09:22.161Z,101418.72
2022-12-18T03:12:21.966Z,101421.97
2022-12-18T03:15:08.056Z,101418.84
2022-12-18T03:17:36.456Z,101431.03
2022-12-18T03:20:10.560Z,101430.59
2022-12-18T03:22:38.026Z,101435.25
2022-12-18T03:25:07.479Z,101437.47
2022-12-18T03:27:35.433Z,101429.81
2022-12-18T03:30:08.350Z,101441.84
2022-12-18T03:33:00.004Z,101447.75
2022-12-18T03:35:29.869Z,101447.16
2022-12-18T03:37:57.650Z,101453.13
2022-12-18T03:40:30.521Z,101456.19
2022-12-18T03:43:04.372Z,101455.34
2022-12-18T03:45:39.656Z,101468.22
2022-12-18T03:48:09.253Z,101469.16
2022-12-18T03:50:39.537Z,101468.25
2022-12-18T03:53:38.185Z,101470.78
2022-12-18T03:56:06.346Z,101468.94
2022-12-18T03:58:34.202Z,101469.28
2022-12-18T04:01:03.445Z,101466.25
2022-12-18T04:03:31.267Z,101473.25
2022-12-18T04:05:58.633Z,101471.84
2022-12-18T04:08:28.337Z,101476.94
2022-12-18T04:10:56.666Z,101470.56
2022-12-18T04:13:44.344Z,101487.37
2022-12-18T04:16:13.759Z,101482.16
2022-12-18T04:18:41.318Z,101478.91
2022-12-18T04:21:09.492Z,101479.53
2022-12-18T04:23:37.584Z,101479.94
2022-12-18T04:26:05.332Z,101474.81
2022-12-18T04:28:34.031Z,101477.87
2022-12-18T04:31:02.007Z,101475.91
2022-12-18T04:33:29.359Z,101479.19
2022-12-18T04:35:57.146Z,101494.81
2022-12-18T04:38:25.870Z,101495.75
2022-12-18T04:40:55.399Z,101492.25
2022-12-18T04:43:23.066Z,101499.78
2022-12-18T04:45:50.793Z,101502.19
2022-12-18T04:48:18.209Z,101500.81
2022-12-18T04:50:45.516Z,101509.88
2022-12-18T04:53:13.197Z,101517.69
2022-12-18T04:55:40.535Z,101516.31
2022-12-18T04:58:07.880Z,101522.16
2022-12-18T05:00:35.547Z,101522.81
2022-12-18T05:03:03.465Z,101525.81
2022-12-18T05:05:31.065Z,101533.91
2022-12-18T05:07:58.686Z,101529.69
2022-12-18T05:10:26.160Z,101537.72
2022-12-18T05:13:01.400Z,101536.06
2022-12-18T05:15:30.404Z,101544.94
2022-12-18T05:17:58.569Z,101538.19
2022-12-18T05:20:26.270Z,101536.03
2022-12-18T05:22:54.126Z,101537.78
2022-12-18T05:25:21.495Z,101537.78
2022-12-18T05:27:48.845Z,101540.56
2022-12-18T05:30:16.509Z,101554.53
2022-12-18T05:32:43.854Z,101542.75
2022-12-18T05:35:11.496Z,101547.50
2022-12-18T05:37:42.958Z,101549.53
2022-12-18T05:40:11.578Z,101553.00
2022-12-18T05:42:39.203Z,101563.19
2022-12-18T05:45:06.986Z,101554.28
2022-12-18T05:47:34.431Z,101563.91
2022-12-18T05:50:02.107Z,101566.81
2022-12-18T05:52:29.480Z,101573.75
2022-12-18T05:54:56.853Z,101564.38
2022-12-18T05:57:24.437Z,101566.31
2022-12-18T05:59:51.768Z,101570.78
2022-12-18T06:02:19.203Z,101576.44
2022-12-18T06:04:46.893Z,101576.78
2022-12-18T06:07:14.200Z,101577.97
2022-12-18T06:09:41.622Z,101584.53
2022-12-18T06:12:09.374Z,101581.16
2022-12-18T06:14:36.719Z,101586.56
2022-12-18T06:17:04.082Z,101590.19
2022-12-18T06:19:31.661Z,101582.63
2022-12-18T06:21:59.906Z,101589.84
2022-12-18T06:24:27.451Z,101592.97
2022-12-18T06:26:55.297Z,101596.44
2022-12-18T06:29:22.696Z,101599.66
2022-12-18T06:31:50.287Z,101602.69
2022-12-18T06:34:18.066Z,101612.06
2022-12-18T06:36:45.385Z,101613.09
2022-12-18T06:39:12.752Z,101619.97
2022-12-18T06:41:40.363Z,101621.88
2022-12-18T06:44:07.782Z,101634.91
2022-12-18T06:46:35.255Z,101634.44
2022-12-18T06:49:02.868Z,101628.56
2022-12-18T06:51:30.175Z,101630.59
2022-12-18T06:53:57.719Z,101628.53
2022-12-18T06:56:25.348Z,101633.75
2022-12-18T06:58:52.811Z,101640.56
2022-12-18T07:01:20.295Z,101644.03
2022-12-18T07:03:48.081Z,101649.00
2022-12-18T07:06:16.552Z,101651.84
2022-12-18T07:08:44.246Z,101661.19
2022-12-18T07:11:11.906Z,101664.34
2022-12-18T07:13:39.743Z,101662.66
2022-12-18T07:16:16.046Z,101673.47
2022-12-18T07:18:46.295Z,101674.44
2022-12-18T07:21:16.594Z,101674.88
2022-12-18T07:23:44.549Z,101677.16
2022-12-18T07:26:13.171Z,101682.59
2022-12-18T07:28:41.005Z,101686.69
2022-12-18T07:31:10.112Z,101695.47
2022-12-18T07:33:39.883Z,101701.41
2022-12-18T07:36:08.130Z,101714.69
2022-12-18T07:38:35.935Z,101707.53
2022-12-18T07:41:11.056Z,101708.37
2022-12-18T07:43:39.060Z,101714.69
2022-12-18T07:46:07.417Z,101707.66
2022-12-18T07:48:35.062Z,101724.66
2022-12-18T07:51:03.605Z,101730.00
2022-12-18T07:53:31.376Z,101729.47
2022-12-18T07:56:25.541Z,101731.53
2022-12-18T07:58:49.923Z,101737.28
2022-12-18T08:01:17.450Z,101741.13
2022-12-18T08:03:45.310Z,101747.44
2022-12-18T08:06:12.709Z,101754.28
2022-12-18T08:08:42.347Z,101748.00
2022-12-18T08:11:10.023Z,101759.00
2022-12-18T08:13:37.525Z,101755.81
2022-12-18T08:16:07.030Z,101767.19
2022-12-18T08:18:35.439Z,101758.41
2022-12-18T08:21:16.178Z,101753.69
2022-12-18T08:23:44.135Z,101757.91
2022-12-18T08:26:12.167Z,101759.09
2022-12-18T08:28:39.560Z,101760.97
2022-12-18T08:31:07.466Z,101762.28
2022-12-18T08:33:35.816Z,101771.41
2022-12-18T08:36:06.141Z,101770.00
2022-12-18T08:38:34.072Z,101770.19
2022-12-18T08:41:06.571Z,101782.34
2022-12-18T08:43:52.759Z,101773.44
2022-12-18T08:46:20.961Z,101773.41
2022-12-18T08:48:48.664Z,101773.66
2022-12-18T08:51:17.069Z,101779.03
2022-12-18T08:53:45.508Z,101778.69
2022-12-18T08:56:13.382Z,101786.13
2022-12-18T08:58:40.980Z,101778.69
2022-12-18T09:01:12.852Z,101784.34
2022-12-18T09:03:41.033Z,101786.88
2022-12-18T09:06:08.759Z,101794.59
2022-12-18T09:08:37.799Z,101800.31
2022-12-18T09:11:05.903Z,101798.44
2022-12-18T09:13:33.314Z,101803.94
2022-12-18T09:16:00.616Z,101802.97
2022-12-18T09:18:28.344Z,101803.37
2022-12-18T09:20:55.666Z,101802.50
2022-12-18T09:23:23.154Z,101805.28
2022-12-18T09:25:50.772Z,101803.69
2022-12-18T09:28:18.810Z,101798.97
2022-12-18T09:30:49.985Z,101795.91
2022-12-18T09:33:18.090Z,101793.88
2022-12-18T09:35:45.740Z,101799.44
2022-12-18T09:38:15.146Z,101787.53
2022-12-18T09:40:57.270Z,101802.63
2022-12-18T09:43:37.060Z,101796.88
2022-12-18T09:46:07.441Z,101795.87
2022-12-18T09:48:46.646Z,101796.78
2022-12-18T09:51:18.430Z,101798.75
2022-12-18T09:53:48.567Z,101802.44
2022-12-18T09:56:20.493Z,101801.66
2022-12-18T09:59:01.854Z,101805.03
2022-12-18T10:01:38.898Z,101797.38
2022-12-18T10:04:11.055Z,101806.91
2022-12-18T10:06:55.103Z,101802.03
2022-12-18T10:09:38.452Z,101803.06
2022-12-18T10:12:18.838Z,101801.25
2022-12-18T10:15:11.861Z,101794.09
2022-12-18T10:17:47.216Z,101803.13
2022-12-18T10:20:17.709Z,101801.66
2022-12-18T10:23:26.483Z,101800.94
2022-12-18T10:25:54.084Z,101797.81
2022-12-18T10:28:21.597Z,101793.34
2022-12-18T10:30:48.975Z,101792.13
2022-12-18T10:33:28.438Z,101786.25
2022-12-18T10:35:55.900Z,101780.62
2022-12-18T10:38:25.632Z,101778.72
2022-12-18T10:41:06.609Z,101788.75
2022-12-18T10:43:41.783Z,101790.84
2022-12-18T10:46:09.113Z,101789.19
2022-12-18T10:48:40.179Z,101782.34
2022-12-18T10:51:10.721Z,101790.72
2022-12-18T10:53:41.352Z,101797.69
2022-12-18T10:56:08.729Z,101799.06
2022-12-18T10:58:37.190Z,101796.78
2022-12-18T11:01:13.004Z,101786.94
2022-12-18T11:03:41.426Z,101786.13
2022-12-18T11:06:20.205Z,101780.97
2022-12-18T11:09:01.923Z,101779.81
2022-12-18T11:11:30.115Z,101767.25
2022-12-18T11:14:05.603Z,101769.63
2022-12-18T11:17:03.046Z,101769.63
2022-12-18T11:19:42.051Z,101772.91
2022-12-18T11:22:25.413Z,101769.78
2022-12-18T11:25:29.985Z,101760.75
2022-12-18T11:27:56.447Z,101761.84
2022-12-18T11:30:29.332Z,101761.78
2022-12-18T11:33:26.378Z,101763.97
2022-12-18T11:35:55.059Z,101767.84
2022-12-18T11:38:42.513Z,101750.94
2022-12-18T11:41:49.266Z,101752.31
2022-12-18T11:44:22.403Z,101750.03
2022-12-18T11:47:01.902Z,101757.47
2022-12-18T11:49:36.243Z,101758.41
2022-12-18T11:52:25.387Z,101752.88
2022-12-18T11:54:54.266Z,101746.63
2022-12-18T11:57:42.327Z,101747.34
2022-12-18T12:00:20.667Z,101749.69
2022-12-18T12:03:10.639Z,101746.25
2022-12-18T12:05:56.159Z,101746.78
2022-12-18T12:08:35.774Z,101732.72
2022-12-18T12:11:21.190Z,101729.78
2022-12-18T12:14:17.711Z,101731.53
2022-12-18T12:17:00.594Z,101735.47
2022-12-18T12:20:09.728Z,101726.69
2022-12-18T12:22:51.213Z,101727.59
2022-12-18T12:25:27.928Z,101735.97
2022-12-18T12:28:04.380Z,101725.59
2022-12-18T12:30:34.876Z,101731.00
2022-12-18T12:33:27.238Z,101728.13
2022-12-18T12:36:27.307Z,101727.72
2022-12-18T12:38:59.216Z,101734.87
2022-12-18T12:41:47.733Z,101722.81
2022-12-18T12:44:18.272Z,101722.75
2022-12-18T12:46:46.306Z,101725.88
2022-12-18T12:49:16.536Z,101732.94
2022-12-18T12:51:57.981Z,101736.31
2022-12-18T12:54:25.925Z,101740.59
2022-12-18T12:57:04.979Z,101749.09
2022-12-18T12:59:39.507Z,101756.63
2022-12-18T13:02:33.578Z,101764.16
2022-12-18T13:05:24.565Z,101763.53
2022-12-18T13:08:00.416Z,101759.59
2022-12-18T13:10:33.469Z,101765.25
2022-12-18T13:13:11.097Z,101765.56
2022-12-18T13:15:46.233Z,101766.09
2022-12-18T13:18:21.619Z,101764.72
2022-12-18T13:20:58.507Z,101775.69
2022-12-18T13:23:34.190Z,101772.84
2022-12-18T13:26:28.877Z,101770.13
2022-12-18T13:28:57.860Z,101780.56
2022-12-18T13:31:40.704Z,101774.81
2022-12-18T13:34:26.869Z,101775.41
2022-12-18T13:36:56.561Z,101775.13
2022-12-18T13:39:30.301Z,101776.97
2022-12-18T13:42:06.971Z,101772.72
2022-12-18T13:44:41.418Z,101776.97
2022-12-18T13:47:38.663Z,101787.06
2022-12-18T13:50:29.855Z,101789.34
2022-12-18T13:53:04.113Z,101794.84
2022-12-18T13:55:31.455Z,101791.31
2022-12-18T13:58:08.135Z,101792.16
2022-12-18T14:00:35.996Z,101787.28
2022-12-18T14:03:21.737Z,101795.50
2022-12-18T14:06:15.705Z,101797.06
2022-12-18T14:08:45.293Z,101798.97
2022-12-18T14:11:23.423Z,101801.69
2022-12-18T14:13:53.083Z,101806.63
2022-12-18T14:16:20.902Z,101803.69
2022-12-18T14:18:56.529Z,101806.16
2022-12-18T14:21:30.427Z,101805.22
2022-12-18T14:24:10.185Z,101800.75
2022-12-18T14:26:37.776Z,101807.84
2022-12-18T14:29:30.404Z,101808.94
2022-12-18T14:32:19.245Z,101815.69
2022-12-18T14:34:47.048Z,101809.63
2022-12-18T14:37:16.212Z,101814.50
2022-12-18T14:40:01.274Z,101807.91
2022-12-18T14:42:30.954Z,101834.72
2022-12-18T14:45:41.754Z,101836.91
2022-12-18T14:48:23.657Z,101837.94
2022-12-18T14:50:59.996Z,101842.06
2022-12-18T14:53:52.409Z,101846.03
2022-12-18T14:56:24.855Z,101847.81
2022-12-18T14:58:57.643Z,101854.13
2022-12-18T15:01:33.620Z,101862.84
2022-12-18T15:04:01.608Z,101854.97
2022-12-18T15:06:34.149Z,101864.19
2022-12-18T15:09:04.104Z,101859.16
2022-12-18T15:11:37.473Z,101860.53
2022-12-18T15:14:24.963Z,101864.56
2022-12-18T15:16:54.554Z,101878.16
2022-12-18T15:19:52.064Z,101875.75
2022-12-18T15:22:27.853Z,101876.28
2022-12-18T15:24:56.263Z,101878.16
2022-12-18T15:27:31.137Z,101887.94
2022-12-18T15:30:07.737Z,101884.53
2022-12-18T15:32:35.840Z,101886.44
2022-12-18T15:35:12.464Z,101900.34
2022-12-18T15:37:43.518Z,101904.41
2022-12-18T15:40:19.197Z,101917.50
2022-12-18T15:43:06.409Z,101913.31
2022-12-18T15:45:34.047Z,101913.31
2022-12-18T15:48:08.119Z,101921.25
2022-12-18T15:50:35.828Z,101916.50
2022-12-18T15:53:03.149Z,101922.00
2022-12-18T15:55:59.315Z,101918.16
2022-12-18T15:58:28.607Z,101924.06
2022-12-18T16:00:56.380Z,101915.56
2022-12-18T16:03:24.024Z,101920.94
2022-12-18T16:05:51.954Z,101923.50
2022-12-18T16:08:19.323Z,101931.37
2022-12-18T16:10:47.031Z,101940.34
2022-12-18T16:13:16.858Z,101940.12
2022-12-18T16:15:44.289Z,101942.16
2022-12-18T16:18:11.962Z,101944.53
2022-12-18T16:20:39.419Z,101949.34
2022-12-18T16:23:06.776Z,101956.03
2022-12-18T16:25:34.778Z,101960.53
2022-12-18T16:28:02.266Z,101955.37
2022-12-18T16:30:35.442Z,101957.62
2022-12-18T16:33:07.444Z,101958.47
2022-12-18T16:35:35.268Z,101959.59
2022-12-18T16:38:02.617Z,101962.66
2022-12-18T16:40:31.423Z,101961.53
2022-12-18T16:42:58.755Z,101972.03
2022-12-18T16:45:34.013Z,101971.78
2022-12-18T16:48:01.770Z,101974.25
2022-12-18T16:50:29.075Z,101979.47
2022-12-18T16:52:56.385Z,101973.16
2022-12-18T16:55:24.033Z,101986.47
2022-12-18T16:57:51.503Z,101980.91
2022-12-18T17:00:18.948Z,101977.25
2022-12-18T17:02:46.987Z,101981.94
2022-12-18T17:05:14.598Z,101981.06
2022-12-18T17:07:41.907Z,101968.59
2022-12-18T17:10:10.110Z,101965.41
2022-12-18T17:12:37.464Z,101965.69
2022-12-18T17:15:05.260Z,101960.97
2022-12-18T17:17:32.924Z,101953.84
2022-12-18T17:20:00.820Z,101946.66
2022-12-18T17:22:28.150Z,101951.41
2022-12-18T17:24:55.759Z,101958.31
2022-12-18T17:27:23.220Z,101958.50
2022-12-18T17:29:50.570Z,101963.09
2022-12-18T17:32:18.353Z,101965.31
2022-12-18T17:34:45.722Z,101965.19
2022-12-18T17:37:13.108Z,101976.44
2022-12-18T17:39:40.725Z,101973.22
2022-12-18T17:42:10.637Z,101969.97
2022-12-18T17:44:43.326Z,101972.72
2022-12-18T17:47:12.219Z,101988.75
2022-12-18T17:49:39.652Z,101989.41
2022-12-18T17:52:08.070Z,101983.78
2022-12-18T17:54:39.364Z,101985.63
2022-12-18T17:57:06.708Z,101975.59
2022-12-18T17:59:34.414Z,101981.31
2022-12-18T18:02:01.813Z,101980.94
2022-12-18T18:04:30.482Z,101966.38
2022-12-18T18:06:57.937Z,101976.16
2022-12-18T18:09:25.242Z,101980.38
2022-12-18T18:12:11.494Z,101979.16
2022-12-18T18:14:38.928Z,101977.22
2022-12-18T18:17:07.064Z,101987.25
2022-12-18T18:19:34.459Z,101985.25
2022-12-18T18:22:02.977Z,101985.00
2022-12-18T18:24:31.241Z,101981.31
2022-12-18T18:27:01.404Z,101982.75
2022-12-18T18:29:30.511Z,101984.25
2022-12-18T18:31:58.656Z,101986.06
2022-12-18T18:34:28.144Z,101987.88
2022-12-18T18:36:55.544Z,101995.34
2022-12-18T18:39:23.156Z,102005.00
2022-12-18T18:41:50.562Z,102011.19
2022-12-18T18:44:18.495Z,102011.88
2022-12-18T18:46:46.206Z,102023.13
2022-12-18T18:49:14.308Z,102015.22
2022-12-18T18:51:42.006Z,102012.87
2022-12-18T18:54:09.865Z,102016.66
2022-12-18T18:57:04.124Z,102021.88
2022-12-18T18:59:31.470Z,102016.87
2022-12-18T19:02:00.754Z,102011.66
2022-12-18T19:04:33.439Z,102009.56
2022-12-18T19:07:01.008Z,102007.88
2022-12-18T19:09:28.604Z,102007.75
2022-12-18T19:12:15.253Z,102015.78
2022-12-18T19:14:43.048Z,102019.31
2022-12-18T19:17:10.722Z,102021.66
2022-12-18T19:19:38.395Z,102033.59
2022-12-18T19:22:06.828Z,102033.84
2022-12-18T19:24:34.556Z,102040.31
2022-12-18T19:27:01.938Z,102042.84
2022-12-18T19:29:29.416Z,102043.22
2022-12-18T19:31:57.051Z,102040.22
2022-12-18T19:34:24.465Z,102052.78
2022-12-18T19:36:56.476Z,102046.22
2022-12-18T19:39:27.000Z,102048.28
2022-12-18T19:41:54.622Z,102052.44
2022-12-18T19:44:22.201Z,102058.59
2022-12-18T19:46:50.397Z,102059.72
2022-12-18T19:49:18.296Z,102066.38
2022-12-18T19:51:45.828Z,102075.09
2022-12-18T19:54:17.076Z,102068.91
2022-12-18T19:56:45.337Z,102067.87
2022-12-18T19:59:12.724Z,102068.63
2022-12-18T20:01:40.542Z,102074.09
2022-12-18T20:04:08.493Z,102061.72
2022-12-18T20:06:49.732Z,102067.25
2022-12-18T20:09:17.483Z,102068.84
2022-12-18T20:11:45.316Z,102069.69
2022-12-18T20:14:13.157Z,102075.16
2022-12-18T20:16:40.965Z,102076.56
2022-12-18T20:19:08.779Z,102079.00
2022-12-18T20:21:36.992Z,102074.72
2022-12-18T20:24:04.829Z,102083.44
2022-12-18T20:26:32.136Z,102090.63
2022-12-18T20:28:59.555Z,102099.94
2022-12-18T20:31:27.335Z,102107.03
2022-12-18T20:33:59.638Z,102105.13
2022-12-18T20:36:29.539Z,102099.94
2022-12-18T20:39:00.493Z,102096.91
2022-12-18T20:41:37.205Z,102101.00
2022-12-18T20:44:06.165Z,102108.41
2022-12-18T20:46:38.098Z,102101.81
2022-12-18T20:49:05.463Z,102101.72
2022-12-18T20:51:33.489Z,102107.87
2022-12-18T20:54:01.158Z,102105.44
2022-12-18T20:56:30.719Z,102109.16
2022-12-18T20:58:58.802Z,102106.03
2022-12-18T21:01:27.794Z,102102.44
2022-12-18T21:03:55.247Z,102108.97
2022-12-18T21:06:23.241Z,102115.38
2022-12-18T21:08:51.076Z,102113.84
2022-12-18T21:11:40.173Z,102117.94
2022-12-18T21:14:22.014Z,102119.88
2022-12-18T21:16:49.545Z,102121.03
2022-12-18T21:19:18.707Z,102118.81
2022-12-18T21:21:46.130Z,102109.50
2022-12-18T21:24:13.675Z,102109.66
2022-12-18T21:26:46.032Z,102112.13
2022-12-18T21:29:19.370Z,102114.81
2022-12-18T21:31:47.412Z,102103.31
2022-12-18T21:34:22.566Z,102105.84
2022-12-18T21:36:50.223Z,102118.31
2022-12-18T21:39:17.710Z,102119.25
2022-12-18T21:42:05.985Z,102110.09
2022-12-18T21:44:37.315Z,102092.53
2022-12-18T21:47:22.757Z,102084.34
2022-12-18T21:49:52.641Z,102095.66
2022-12-18T21:52:26.238Z,102096.72
2022-12-18T21:55:07.978Z,102088.72
2022-12-18T21:57:39.757Z,102100.81
2022-12-18T22:00:08.146Z,102102.09
2022-12-18T22:02:39.521Z,102102.22
2022-12-18T22:05:07.926Z,102091.66
2022-12-18T22:07:35.402Z,102096.06
2022-12-18T22:10:02.739Z,102096.75
2022-12-18T22:12:43.118Z,102098.69
2022-12-18T22:15:11.449Z,102096.91
2022-12-18T22:17:40.800Z,102098.59
2022-12-18T22:20:09.353Z,102097.03
2022-12-18T22:22:36.676Z,102088.38
2022-12-18T22:25:04.730Z,102096.38
2022-12-18T22:27:32.074Z,102089.31
2022-12-18T22:30:05.594Z,102095.13
2022-12-18T22:32:33.701Z,102098.53
2022-12-18T22:35:06.283Z,102099.91
2022-12-18T22:37:37.074Z,102101.97
2022-12-18T22:40:06.105Z,102100.75
2022-12-18T22:42:34.757Z,102110.00
2022-12-18T22:45:02.356Z,102105.63
2022-12-18T22:47:30.935Z,102107.94
2022-12-18T22:49:58.521Z,102100.09
2022-12-18T22:52:26.235Z,102111.37
2022-12-18T22:54:54.201Z,102109.50
2022-12-18T22:57:22.395Z,102111.00
2022-12-18T22:59:50.588Z,102112.97
2022-12-18T23:02:18.930Z,102113.16
2022-12-18T23:04:47.752Z,102110.53
2022-12-18T23:07:16.340Z,102112.72
2022-12-18T23:09:44.156Z,102117.66
2022-12-18T23:12:19.280Z,102113.75
2022-12-18T23:14:47.345Z,102116.62
2022-12-18T23:17:14.730Z,102109.97
2022-12-18T23:19:48.667Z,102115.94
2022-12-18T23:22:17.218Z,102121.00
2022-12-18T23:24:44.589Z,102116.78
2022-12-18T23:27:12.371Z,102124.03
2022-12-18T23:29:40.505Z,102124.63
2022-12-18T23:32:07.970Z,102112.91
2022-12-18T23:34:35.438Z,102115.81
2022-12-18T23:37:03.766Z,102112.13
2022-12-18T23:39:31.377Z,102112.91
2022-12-18T23:41:58.757Z,102112.91
2022-12-18T23:44:26.441Z,102118.50
2022-12-18T23:46:53.826Z,102112.38
2022-12-18T23:49:21.168Z,102112.50
2022-12-18T23:51:49.080Z,102112.38
2022-12-18T23:54:16.400Z,102106.41
2022-12-18T23:56:43.765Z,102119.53
2022-12-18T23:59:11.387Z,102114.66
